Time;durP1;ratioP1;P1;durP2;ratioP2;P2;SDS_P1;SDS_P2;PMS_P1;PMS_P2;Temp;Humidity;BMP_temperature;BMP_pressure;BME280_temperature;BME280_humidity;BME280_pressure;Samples;Min_cycle;Max_cycle;Signal;HPM_P1;HPM_P2
2022/11/11 00:00:10;;;;;;;17.52;9.38;;;11.80;99.90;;;;;;5057597;28;20124;-71
2022/11/11 00:02:35;;;;;;;17.45;9.48;;;11.70;99.90;;;;;;5055394;28;20053;-71
2022/11/11 00:05:01;;;;;;;15.25;9.10;;;11.70;99.90;;;;;;5046703;28;20517;-71
2022/11/11 00:07:27;;;;;;;18.95;9.80;;;11.70;99.90;;;;;;5057078;28;20048;-69
2022/11/11 00:09:55;;;;;;;19.42;10.10;;;11.70;99.90;;;;;;5057555;28;20033;-70
2022/11/11 00:12:23;;;;;;;16.02;9.50;;;11.70;99.90;;;;;;5057023;28;20045;-71
2022/11/11 00:14:49;;;;;;;18.90;10.05;;;11.80;99.90;;;;;;5057187;28;20076;-71
2022/11/11 00:25:27;;;;;;;17.77;8.85;;;11.70;99.90;;;;;;5056935;28;20045;-70
2022/11/11 00:27:52;;;;;;;17.70;9.75;;;11.70;99.90;;;;;;5057194;28;20040;-71
2022/11/11 00:30:19;;;;;;;16.70;10.07;;;11.70;99.90;;;;;;5027958;28;20469;-70
2022/11/11 00:32:44;;;;;;;17.27;9.73;;;11.70;99.90;;;;;;5019587;28;20033;-70
2022/11/11 00:38:09;;;;;;;17.42;10.15;;;11.70;99.90;;;;;;5036833;28;20037;-72
2022/11/11 00:40:36;;;;;;;20.63;9.93;;;11.70;99.90;;;;;;5036464;28;20140;-72
2022/11/11 00:43:01;;;;;;;18.67;11.05;;;11.70;99.90;;;;;;5036881;28;20077;-71
2022/11/11 00:45:27;;;;;;;16.63;10.43;;;11.70;99.90;;;;;;5051196;28;20087;-71
2022/11/11 00:53:23;;;;;;;23.13;9.93;;;11.70;99.90;;;;;;5055502;28;20045;-70
2022/11/11 00:55:49;;;;;;;20.92;10.27;;;11.70;99.90;;;;;;5056780;28;20041;-71
2022/11/11 00:58:15;;;;;;;19.67;10.15;;;11.80;99.90;;;;;;5038930;28;20457;-70
2022/11/11 01:00:42;;;;;;;16.08;10.07;;;11.80;99.90;;;;;;5037485;28;20045;-72
2022/11/11 01:03:11;;;;;;;17.38;10.07;;;11.70;99.90;;;;;;5036203;28;20064;-70
2022/11/11 01:05:37;;;;;;;18.20;9.60;;;11.70;99.90;;;;;;5036429;28;20346;-72
2022/11/11 01:08:05;;;;;;;17.33;10.48;;;11.60;99.90;;;;;;5019440;28;20465;-71
2022/11/11 01:10:37;;;;;;;18.45;10.30;;;11.70;99.90;;;;;;5036318;28;20044;-72
2022/11/11 01:13:20;;;;;;;18.60;10.60;;;11.70;99.90;;;;;;5018568;28;20481;-70
2022/11/11 01:15:49;;;;;;;18.08;10.45;;;11.70;99.90;;;;;;5035908;28;20050;-71
2022/11/11 01:18:21;;;;;;;19.23;10.60;;;11.70;99.90;;;;;;5025746;28;20377;-72
2022/11/11 01:20:55;;;;;;;16.42;9.93;;;11.70;99.90;;;;;;5056285;28;20519;-72
2022/11/11 01:23:21;;;;;;;20.25;10.63;;;11.80;99.90;;;;;;5055572;28;20437;-70
2022/11/11 01:25:51;;;;;;;18.55;9.98;;;11.70;99.90;;;;;;5055762;28;20040;-70
2022/11/11 01:28:17;;;;;;;20.33;11.20;;;11.70;99.90;;;;;;5055909;28;20041;-72
2022/11/11 01:30:46;;;;;;;20.90;11.30;;;11.70;99.90;;;;;;5055873;28;20062;-72
2022/11/11 01:33:11;;;;;;;21.33;9.98;;;11.70;99.90;;;;;;5055707;28;20361;-71
2022/11/11 01:35:39;;;;;;;23.50;11.25;;;11.70;99.90;;;;;;5021738;28;20045;-72
2022/11/11 01:38:04;;;;;;;18.80;11.13;;;11.60;99.90;;;;;;5055807;28;20059;-71
2022/11/11 01:40:30;;;;;;;18.77;11.20;;;11.70;99.90;;;;;;5055701;28;20041;-71
2022/11/11 01:43:05;;;;;;;17.02;10.35;;;11.60;99.90;;;;;;5021337;28;20083;-72
2022/11/11 01:45:54;;;;;;;18.50;10.95;;;11.50;99.90;;;;;;5055895;28;20432;-72
2022/11/11 01:51:32;;;;;;;20.70;11.73;;;11.50;99.90;;;;;;5035583;28;20064;-71
2022/11/11 01:54:02;;;;;;;26.55;12.00;;;11.50;99.90;;;;;;5035601;28;20037;-72
2022/11/11 01:56:28;;;;;;;19.05;10.75;;;11.50;99.90;;;;;;5018071;28;20046;-71
2022/11/11 01:58:59;;;;;;;17.27;10.70;;;11.50;99.90;;;;;;5035337;28;20048;-71
2022/11/11 02:01:24;;;;;;;16.05;11.10;;;11.50;99.90;;;;;;5035544;28;20382;-72
2022/11/11 02:06:41;;;;;;;22.83;12.30;;;11.50;99.90;;;;;;5035635;28;20041;-71
2022/11/11 02:09:10;;;;;;;20.25;11.40;;;11.30;99.90;;;;;;5035324;28;20124;-72
2022/11/11 02:14:35;;;;;;;17.58;11.82;;;11.60;99.90;;;;;;5035143;28;20115;-71
2022/11/11 02:17:04;;;;;;;21.00;12.02;;;11.60;99.90;;;;;;5041079;28;20408;-72
2022/11/11 02:19:58;;;;;;;23.75;13.48;;;11.50;99.90;;;;;;5020970;28;20057;-72
2022/11/11 02:22:30;;;;;;;18.40;13.13;;;11.50;99.90;;;;;;5037621;28;20479;-72
2022/11/11 02:24:57;;;;;;;21.98;13.15;;;11.50;99.90;;;;;;5037519;28;20483;-71
2022/11/11 02:27:25;;;;;;;17.40;13.65;;;11.50;99.90;;;;;;5037205;28;20037;-72
2022/11/11 02:29:54;;;;;;;23.27;15.52;;;11.50;99.90;;;;;;5054991;28;20107;-72
2022/11/11 02:32:22;;;;;;;23.45;14.85;;;11.40;99.90;;;;;;5020823;28;20396;-72
2022/11/11 02:34:47;;;;;;;26.10;15.70;;;11.50;99.90;;;;;;5055164;28;20048;-71
2022/11/11 02:37:19;;;;;;;21.55;16.25;;;11.50;99.90;;;;;;5037116;28;20045;-72
2022/11/11 02:39:46;;;;;;;24.75;16.10;;;11.40;99.90;;;;;;5020550;28;20052;-71
2022/11/11 02:42:14;;;;;;;22.02;16.05;;;11.40;99.90;;;;;;5055174;28;20045;-73
2022/11/11 02:44:40;;;;;;;26.30;16.98;;;11.40;99.90;;;;;;5054587;28;20033;-72
2022/11/11 02:47:06;;;;;;;26.40;17.77;;;11.40;99.90;;;;;;5009685;28;20044;-72
2022/11/11 02:49:31;;;;;;;25.60;17.65;;;11.40;99.90;;;;;;5034737;28;20045;-72
2022/11/11 02:51:57;;;;;;;28.08;18.40;;;11.30;99.90;;;;;;5034363;28;20519;-71
2022/11/11 02:54:23;;;;;;;28.05;18.00;;;11.30;99.90;;;;;;5034897;28;20103;-72
2022/11/11 02:57:07;;;;;;;26.70;17.85;;;11.30;99.90;;;;;;5034661;28;20489;-73
2022/11/11 02:59:34;;;;;;;26.88;19.63;;;11.30;99.90;;;;;;5002180;28;20123;-72
2022/11/11 03:01:59;;;;;;;26.67;18.27;;;11.30;99.90;;;;;;5034755;28;20042;-73
2022/11/11 03:04:25;;;;;;;25.02;20.77;;;11.20;99.90;;;;;;5034750;28;20473;-72
2022/11/11 03:06:50;;;;;;;24.15;19.48;;;11.20;99.90;;;;;;5034924;28;20072;-71
2022/11/11 03:09:16;;;;;;;27.08;21.17;;;11.20;99.90;;;;;;5034816;28;20048;-73
2022/11/11 03:11:42;;;;;;;31.98;20.85;;;11.20;99.90;;;;;;5017137;28;20345;-72
2022/11/11 03:14:08;;;;;;;26.58;19.20;;;11.20;99.90;;;;;;5000607;28;20457;-71
2022/11/11 03:19:18;;;;;;;35.08;21.92;;;11.10;99.90;;;;;;5057797;28;20065;-72
2022/11/11 03:21:43;;;;;;;29.33;22.10;;;11.20;99.90;;;;;;5040853;28;20052;-73
2022/11/11 03:24:09;;;;;;;27.40;22.05;;;11.20;99.90;;;;;;5058438;28;20365;-73
2022/11/11 03:26:36;;;;;;;28.23;22.50;;;11.20;99.90;;;;;;5058077;28;20053;-73
2022/11/11 03:29:02;;;;;;;28.92;21.75;;;11.20;99.90;;;;;;5040359;28;20365;-72
2022/11/11 03:31:28;;;;;;;30.50;22.27;;;11.70;99.90;;;;;;5057962;28;20083;-72
2022/11/11 03:33:53;;;;;;;27.67;22.98;;;11.20;99.90;;;;;;5057270;28;20456;-73
2022/11/11 03:36:19;;;;;;;30.92;22.75;;;11.20;99.90;;;;;;5037669;28;20048;-72
2022/11/11 03:38:45;;;;;;;31.23;24.05;;;11.20;99.90;;;;;;5038269;28;20049;-72
2022/11/11 03:41:10;;;;;;;30.05;23.45;;;11.20;99.90;;;;;;5037893;28;20052;-72
2022/11/11 03:43:36;;;;;;;32.70;23.77;;;11.20;99.90;;;;;;5037842;28;20509;-72
2022/11/11 03:46:04;;;;;;;30.67;24.83;;;11.40;99.90;;;;;;5039252;28;20072;-71
2022/11/11 03:48:34;;;;;;;33.80;25.42;;;11.20;99.90;;;;;;5057963;28;20053;-73
2022/11/11 03:51:00;;;;;;;31.65;25.15;;;11.20;99.90;;;;;;5043876;28;20351;-72
2022/11/11 03:53:25;;;;;;;32.47;23.48;;;11.30;99.90;;;;;;5037784;28;20044;-71
2022/11/11 03:55:51;;;;;;;30.13;24.60;;;11.60;99.90;;;;;;5037946;28;20037;-71
2022/11/11 03:58:17;;;;;;;32.38;24.98;;;11.20;99.90;;;;;;5037759;28;20033;-71
2022/11/11 04:00:44;;;;;;;29.95;25.75;;;11.10;99.90;;;;;;5037806;28;20034;-72
2022/11/11 04:11:39;;;;;;;31.33;26.25;;;11.10;99.90;;;;;;5037460;28;20042;-71
2022/11/11 04:16:52;;;;;;;32.90;26.30;;;11.10;99.90;;;;;;5044995;28;20057;-71
2022/11/11 04:22:02;;;;;;;35.15;25.23;;;11.10;99.90;;;;;;5039126;28;20524;-72
2022/11/11 04:27:17;;;;;;;33.67;27.52;;;11.00;99.90;;;;;;5056747;28;20125;-72
2022/11/11 04:29:45;;;;;;;33.17;26.77;;;11.10;99.90;;;;;;5039609;28;20056;-72
2022/11/11 04:35:00;;;;;;;35.45;26.33;;;11.10;99.90;;;;;;5036997;28;20477;-70
2022/11/11 04:37:29;;;;;;;36.72;27.48;;;11.00;99.90;;;;;;5019045;28;20124;-71
2022/11/11 04:42:39;;;;;;;34.88;27.45;;;11.00;99.90;;;;;;5036856;28;20041;-73
2022/11/11 04:47:57;;;;;;;35.40;28.42;;;11.00;99.90;;;;;;5043789;28;20415;-71
2022/11/11 04:50:25;;;;;;;35.10;28.13;;;11.00;99.90;;;;;;5038508;28;20029;-72
2022/11/11 04:52:51;;;;;;;35.53;27.25;;;11.00;99.90;;;;;;5056928;28;20342;-72
2022/11/11 04:58:03;;;;;;;34.92;28.63;;;11.00;99.90;;;;;;5056363;28;20132;-70
2022/11/11 05:00:28;;;;;;;35.63;28.33;;;11.00;99.90;;;;;;5056342;28;20460;-71
2022/11/11 05:08:57;;;;;;;35.55;28.85;;;11.00;99.90;;;;;;5056390;28;20045;-71
2022/11/11 05:11:28;;;;;;;37.63;29.65;;;11.00;99.90;;;;;;5056745;28;20090;-71
2022/11/11 05:22:26;;;;;;;35.90;29.05;;;11.00;99.90;;;;;;5055920;28;20041;-71
2022/11/11 05:27:36;;;;;;;37.95;29.65;;;11.00;99.90;;;;;;5055711;28;20043;-71
2022/11/11 05:30:03;;;;;;;38.05;29.63;;;11.00;99.90;;;;;;5055900;28;20041;-72
2022/11/11 05:32:29;;;;;;;38.00;29.58;;;10.90;99.90;;;;;;5021616;28;20060;-71
2022/11/11 05:34:54;;;;;;;36.28;28.10;;;10.90;99.90;;;;;;5038132;28;20037;-71
2022/11/11 05:37:20;;;;;;;36.75;28.65;;;10.90;99.90;;;;;;5055786;28;20107;-71
2022/11/11 05:39:45;;;;;;;34.20;28.73;;;10.90;99.90;;;;;;5055107;28;20500;-71
2022/11/11 05:42:11;;;;;;;40.53;29.90;;;10.90;99.90;;;;;;5041055;28;20041;-70
2022/11/11 05:44:40;;;;;;;41.22;30.75;;;10.90;99.90;;;;;;5035128;28;20125;-69
2022/11/11 05:47:06;;;;;;;34.63;28.30;;;10.90;99.90;;;;;;5035695;28;20049;-70
2022/11/11 05:49:31;;;;;;;37.70;29.85;;;10.90;99.90;;;;;;5035417;28;20132;-70
2022/11/11 05:51:58;;;;;;;38.55;28.17;;;10.90;99.90;;;;;;5035256;28;20042;-71
2022/11/11 05:54:24;;;;;;;37.08;28.17;;;10.90;99.90;;;;;;5035551;28;20053;-71
2022/11/11 05:56:50;;;;;;;34.83;28.48;;;11.00;99.90;;;;;;5035254;28;20116;-71
2022/11/11 05:59:16;;;;;;;37.58;28.02;;;11.00;99.90;;;;;;5035290;28;20041;-72
2022/11/11 06:01:41;;;;;;;37.28;28.73;;;11.00;99.90;;;;;;5035560;28;20044;-71
2022/11/11 06:04:10;;;;;;;34.83;26.90;;;11.10;99.90;;;;;;5025482;28;20040;-71
2022/11/11 06:06:36;;;;;;;40.22;28.25;;;11.10;99.90;;;;;;5037547;28;20071;-72
2022/11/11 06:09:03;;;;;;;42.22;29.70;;;11.20;99.90;;;;;;5055205;28;20445;-69
2022/11/11 06:11:29;;;;;;;35.72;29.00;;;11.10;99.90;;;;;;5055723;28;20029;-70
2022/11/11 06:13:55;;;;;;;35.78;29.23;;;11.10;99.90;;;;;;5054664;28;20041;-70
2022/11/11 06:16:21;;;;;;;34.15;28.90;;;11.10;99.90;;;;;;5054544;28;20049;-71
2022/11/11 06:18:47;;;;;;;35.17;27.95;;;11.10;99.90;;;;;;5036467;28;20063;-71
2022/11/11 06:21:13;;;;;;;39.05;28.77;;;11.10;99.90;;;;;;5054055;28;20127;-71
2022/11/11 06:23:38;;;;;;;37.95;29.33;;;11.10;99.90;;;;;;5036264;28;20793;-70
2022/11/11 06:26:14;;;;;;;36.78;28.58;;;11.10;99.90;;;;;;5054428;28;20033;-70
2022/11/11 06:28:41;;;;;;;39.45;28.92;;;11.20;99.90;;;;;;5054499;28;20075;-70
2022/11/11 06:31:09;;;;;;;35.92;28.92;;;11.20;99.90;;;;;;5054804;28;20453;-70
2022/11/11 06:33:35;;;;;;;37.60;29.75;;;11.10;99.90;;;;;;5054161;28;20420;-72
2022/11/11 06:36:01;;;;;;;35.92;28.80;;;11.10;99.90;;;;;;5054326;28;20634;-70
2022/11/11 06:38:26;;;;;;;39.63;29.83;;;11.10;99.90;;;;;;5054589;28;20040;-71
2022/11/11 06:40:52;;;;;;;37.47;29.42;;;11.10;99.90;;;;;;5054276;28;20458;-71
2022/11/11 06:43:18;;;;;;;33.60;28.10;;;11.10;99.90;;;;;;5053486;28;20037;-70
2022/11/11 06:45:44;;;;;;;42.80;29.63;;;11.10;99.90;;;;;;5054618;28;20052;-70
2022/11/11 06:48:10;;;;;;;36.88;28.88;;;11.10;99.90;;;;;;5054653;28;20090;-70
2022/11/11 06:50:36;;;;;;;36.83;28.52;;;11.10;99.90;;;;;;5053780;28;20509;-69
2022/11/11 06:53:10;;;;;;;37.42;28.25;;;11.10;99.90;;;;;;5043371;28;20037;-69
2022/11/11 06:55:36;;;;;;;37.53;28.23;;;11.10;99.90;;;;;;5057913;28;20055;-69
2022/11/11 06:58:06;;;;;;;37.50;27.95;;;11.10;99.90;;;;;;5058279;28;20398;-70
2022/11/11 07:00:33;;;;;;;36.50;28.77;;;11.10;99.90;;;;;;5058653;28;20045;-71
2022/11/11 07:02:59;;;;;;;36.17;28.50;;;11.20;99.90;;;;;;5058444;28;20393;-71
2022/11/11 07:05:24;;;;;;;35.40;28.30;;;11.10;99.90;;;;;;5058091;28;20037;-71
2022/11/11 07:07:50;;;;;;;36.60;27.52;;;11.20;99.90;;;;;;5023458;28;20056;-72
2022/11/11 07:10:16;;;;;;;33.88;26.75;;;11.50;99.90;;;;;;5018035;28;20033;-71
2022/11/11 07:12:42;;;;;;;34.78;27.90;;;11.20;99.90;;;;;;5037431;28;20041;-71
2022/11/11 07:15:11;;;;;;;34.40;27.13;;;11.20;99.90;;;;;;5037607;28;20101;-69
2022/11/11 07:17:36;;;;;;;35.15;26.58;;;11.40;99.90;;;;;;5037418;28;20072;-71
2022/11/11 07:20:03;;;;;;;36.58;27.00;;;11.10;99.90;;;;;;5037642;28;20049;-70
2022/11/11 07:22:28;;;;;;;38.03;26.52;;;11.20;99.90;;;;;;5037863;28;20045;-70
2022/11/11 07:24:54;;;;;;;32.47;27.15;;;11.20;99.90;;;;;;5037906;28;20033;-72
2022/11/11 07:27:20;;;;;;;37.95;26.33;;;11.20;99.90;;;;;;5039888;28;20052;-68
2022/11/11 07:29:47;;;;;;;36.42;26.80;;;11.20;99.90;;;;;;5033501;28;20112;-70
2022/11/11 07:32:16;;;;;;;36.05;26.92;;;11.20;99.90;;;;;;5041193;28;20045;-70
2022/11/11 07:34:42;;;;;;;37.88;27.08;;;11.20;99.90;;;;;;5052912;28;20041;-70
2022/11/11 07:37:08;;;;;;;40.45;27.85;;;11.20;99.90;;;;;;5037583;28;20085;-71
2022/11/11 07:39:33;;;;;;;32.15;23.98;;;11.20;99.90;;;;;;5038031;28;20038;-70
2022/11/11 07:42:00;;;;;;;34.97;25.08;;;11.30;99.90;;;;;;5019888;28;20052;-70
2022/11/11 07:44:25;;;;;;;35.65;25.35;;;11.40;99.90;;;;;;5037163;28;20116;-70
2022/11/11 07:46:51;;;;;;;36.53;26.27;;;11.20;99.90;;;;;;5037282;28;20133;-69
2022/11/11 07:49:17;;;;;;;35.95;25.30;;;11.20;99.90;;;;;;5037292;28;20361;-71
2022/11/11 07:51:42;;;;;;;32.38;24.00;;;11.30;99.90;;;;;;5036750;28;20095;-71
2022/11/11 07:54:11;;;;;;;34.28;24.42;;;11.30;99.90;;;;;;5054154;28;20047;-71
2022/11/11 07:56:36;;;;;;;35.40;24.85;;;11.30;99.90;;;;;;5057124;28;20033;-71
2022/11/11 07:59:02;;;;;;;31.80;25.33;;;11.30;99.90;;;;;;5057209;28;20404;-71
2022/11/11 08:01:27;;;;;;;32.25;24.33;;;11.30;99.90;;;;;;5056908;28;20037;-70
2022/11/11 08:03:53;;;;;;;27.63;22.20;;;11.30;99.90;;;;;;5085311;22;20399;-73
2022/11/11 08:06:20;;;;;;;32.20;23.65;;;11.30;99.90;;;;;;5057188;28;20052;-74
2022/11/11 08:08:46;;;;;;;31.08;23.15;;;11.40;99.90;;;;;;5038949;28;20045;-71
2022/11/11 08:11:12;;;;;;;32.70;24.20;;;11.40;99.90;;;;;;5039255;28;20087;-71
2022/11/11 08:13:45;;;;;;;30.02;22.38;;;11.40;99.90;;;;;;5056797;28;21547;-72
2022/11/11 08:16:13;;;;;;;28.77;22.85;;;11.40;99.90;;;;;;5056851;28;20048;-71
2022/11/11 08:18:40;;;;;;;32.78;23.02;;;11.40;99.90;;;;;;5056277;28;20056;-71
2022/11/11 08:21:06;;;;;;;32.38;23.70;;;11.50;99.90;;;;;;5056208;28;20059;-70
2022/11/11 08:23:32;;;;;;;30.55;22.88;;;11.40;99.90;;;;;;5033948;28;20169;-71
2022/11/11 08:26:08;;;;;;;31.73;22.35;;;11.40;99.90;;;;;;5036178;28;20073;-71
2022/11/11 08:28:34;;;;;;;27.70;22.30;;;11.50;99.90;;;;;;5036109;28;20045;-72
2022/11/11 08:31:01;;;;;;;28.80;22.90;;;11.50;99.90;;;;;;5036624;28;20041;-70
2022/11/11 08:33:27;;;;;;;29.63;22.63;;;11.50;99.90;;;;;;5019036;28;20049;-71
2022/11/11 08:35:54;;;;;;;31.77;22.85;;;11.50;99.90;;;;;;5036819;28;20106;-72
2022/11/11 08:38:24;;;;;;;29.85;22.67;;;11.60;99.90;;;;;;5032583;28;20037;-72
2022/11/11 08:40:51;;;;;;;28.63;21.52;;;11.60;99.90;;;;;;5037049;28;20138;-72
2022/11/11 08:43:16;;;;;;;27.38;20.88;;;11.60;99.90;;;;;;5036205;28;20073;-73
2022/11/11 08:45:42;;;;;;;28.30;20.88;;;11.60;99.90;;;;;;5036728;28;20141;-72
2022/11/11 08:48:11;;;;;;;30.17;21.70;;;11.70;99.90;;;;;;5036758;28;20120;-72
2022/11/11 08:50:40;;;;;;;26.83;21.10;;;11.60;99.90;;;;;;5036747;28;20065;-72
2022/11/11 08:53:07;;;;;;;30.60;21.27;;;11.60;99.90;;;;;;5048868;28;20048;-73
2022/11/11 08:55:34;;;;;;;25.38;20.02;;;11.60;99.90;;;;;;5038901;28;20419;-72
2022/11/11 08:58:01;;;;;;;25.73;20.70;;;11.80;99.90;;;;;;5056692;28;20128;-72
2022/11/11 09:00:27;;;;;;;24.15;18.98;;;11.70;99.90;;;;;;5056420;28;20163;-73
2022/11/11 09:02:53;;;;;;;25.27;20.45;;;11.70;99.90;;;;;;5055820;28;20357;-73
2022/11/11 09:05:19;;;;;;;27.40;20.30;;;11.90;99.90;;;;;;5055936;28;20102;-71
2022/11/11 09:07:45;;;;;;;27.23;19.10;;;11.90;99.90;;;;;;5038771;28;20037;-71
2022/11/11 09:10:11;;;;;;;28.15;19.90;;;11.90;99.90;;;;;;5056359;28;20121;-72
2022/11/11 09:12:37;;;;;;;28.35;18.98;;;11.70;99.90;;;;;;5056318;28;20055;-72
2022/11/11 09:15:03;;;;;;;28.63;19.38;;;11.70;99.90;;;;;;5037737;28;20099;-72
2022/11/11 09:17:29;;;;;;;27.88;19.33;;;11.70;99.90;;;;;;5050297;28;20396;-73
2022/11/11 09:19:55;;;;;;;27.70;19.08;;;11.70;99.90;;;;;;5036137;28;20037;-72
2022/11/11 09:22:20;;;;;;;23.70;19.10;;;11.80;99.90;;;;;;5036121;28;20100;-72
2022/11/11 09:24:46;;;;;;;26.00;20.38;;;11.70;99.90;;;;;;5036110;28;20057;-72
2022/11/11 09:27:11;;;;;;;29.25;19.20;;;11.80;99.90;;;;;;5051894;28;20518;-71
2022/11/11 09:29:37;;;;;;;25.77;18.90;;;11.80;99.90;;;;;;5051351;28;20033;-73
2022/11/11 09:32:04;;;;;;;23.40;19.10;;;12.30;99.90;;;;;;5034967;28;20064;-72
2022/11/11 09:34:29;;;;;;;25.55;18.77;;;11.80;99.90;;;;;;5035867;28;20064;-73
2022/11/11 09:36:55;;;;;;;26.95;18.67;;;11.90;99.90;;;;;;5051573;28;20037;-72
2022/11/11 09:39:20;;;;;;;20.75;17.45;;;11.90;99.90;;;;;;5035943;28;20112;-72
2022/11/11 09:41:57;;;;;;;27.23;19.00;;;11.90;99.90;;;;;;5035784;28;20353;-73
2022/11/11 09:44:37;;;;;;;24.10;18.88;;;11.90;99.90;;;;;;5034432;28;20052;-73
2022/11/11 09:47:25;;;;;;;26.77;18.42;;;11.90;99.90;;;;;;5037231;28;20052;-72
2022/11/11 09:50:05;;;;;;;26.33;18.73;;;11.90;99.90;;;;;;5055462;28;20032;-72
2022/11/11 09:52:42;;;;;;;27.50;18.52;;;11.90;99.90;;;;;;5055929;28;20052;-70
2022/11/11 09:55:22;;;;;;;23.83;17.92;;;11.90;99.90;;;;;;5055446;28;20045;-73
2022/11/11 09:58:00;;;;;;;27.13;19.67;;;11.90;99.90;;;;;;5055772;28;20047;-73
2022/11/11 10:00:33;;;;;;;24.48;18.73;;;11.90;99.90;;;;;;5055610;28;20053;-71
2022/11/11 10:03:19;;;;;;;;;;;11.90;99.90;;;;;;5055202;28;20448;-70
2022/11/11 10:05:53;;;;;;;23.40;17.23;;;11.90;99.90;;;;;;5054461;28;19966;-69
2022/11/11 10:08:25;;;;;;;23.60;17.17;;;12.10;99.90;;;;;;5055342;28;20049;-68
2022/11/11 10:10:52;;;;;;;20.95;17.45;;;12.30;99.90;;;;;;5055382;28;20076;-68
2022/11/11 10:13:33;;;;;;;24.65;16.58;;;12.40;99.90;;;;;;5055105;28;20318;-68
2022/11/11 10:16:20;;;;;;;23.98;18.52;;;12.20;99.90;;;;;;5039212;28;20033;-70
2022/11/11 10:19:28;;;;;;;21.05;17.75;;;12.20;99.90;;;;;;5035311;28;20410;-71
2022/11/11 10:22:00;;;;;;;20.35;17.42;;;12.20;99.90;;;;;;5035474;28;20096;-72
2022/11/11 10:24:32;;;;;;;27.73;17.25;;;12.30;99.90;;;;;;5034943;28;20064;-72
2022/11/11 10:27:13;;;;;;;19.00;16.80;;;12.20;99.90;;;;;;5050583;28;20038;-71
2022/11/11 10:29:43;;;;;;;23.45;16.98;;;12.30;99.90;;;;;;5047034;28;20472;-72
2022/11/11 10:32:24;;;;;;;19.10;16.63;;;12.30;99.90;;;;;;5035391;28;20072;-71
2022/11/11 10:34:50;;;;;;;19.67;16.30;;;12.30;99.90;;;;;;5035188;28;20053;-70
2022/11/11 10:37:42;;;;;;;19.33;16.83;;;12.30;99.90;;;;;;5035086;28;20127;-71
2022/11/11 10:40:21;;;;;;;22.25;16.95;;;12.40;99.90;;;;;;5014871;28;20053;-69
2022/11/11 10:42:46;;;;;;;19.90;17.17;;;12.40;99.90;;;;;;5034798;28;20115;-70
2022/11/11 10:45:39;;;;;;;20.17;17.15;;;12.40;99.90;;;;;;5047642;28;20450;-70
2022/11/11 10:48:10;;;;;;;21.40;16.33;;;12.40;99.90;;;;;;5037667;28;20076;-69
2022/11/11 10:50:44;;;;;;;19.40;15.90;;;12.40;99.90;;;;;;5054885;28;20048;-70
2022/11/11 10:53:27;;;;;;;21.10;16.95;;;12.50;99.90;;;;;;5054632;28;20360;-68
2022/11/11 10:56:01;;;;;;;19.58;16.13;;;12.50;99.90;;;;;;5054737;28;20052;-68
2022/11/11 10:58:31;;;;;;;18.00;15.85;;;12.60;99.90;;;;;;5054268;28;20106;-69
2022/11/11 11:00:58;;;;;;;20.52;16.15;;;12.60;99.90;;;;;;5054816;28;20080;-69
2022/11/11 11:03:54;;;;;;;20.73;16.23;;;12.70;99.90;;;;;;5054539;28;20468;-69
2022/11/11 11:06:26;;;;;;;19.10;16.30;;;12.70;99.90;;;;;;5046439;28;20053;-69
2022/11/11 11:08:55;;;;;;;21.17;17.08;;;12.70;99.90;;;;;;5054455;28;20091;-68
2022/11/11 11:11:30;;;;;;;20.65;16.33;;;12.80;99.90;;;;;;5054549;28;20091;-69
2022/11/11 11:14:04;;;;;;;18.13;14.80;;;12.90;99.90;;;;;;5047379;28;20037;-69
2022/11/11 11:16:36;;;;;;;17.55;14.85;;;12.90;99.90;;;;;;5034711;28;20099;-69
2022/11/11 11:19:18;;;;;;;15.98;14.27;;;13.00;99.90;;;;;;5017040;28;20049;-69
2022/11/11 11:21:55;;;;;;;18.75;15.13;;;13.10;99.90;;;;;;5048254;28;20060;-69
2022/11/11 11:24:30;;;;;;;17.10;14.27;;;13.20;99.90;;;;;;5054193;28;20136;-69
2022/11/11 11:26:58;;;;;;;17.60;15.65;;;13.30;99.90;;;;;;5054401;28;20348;-69
2022/11/11 11:29:44;;;;;;;16.85;14.57;;;13.30;99.90;;;;;;5054152;28;20506;-69
2022/11/11 11:32:17;;;;;;;19.75;14.90;;;13.30;99.90;;;;;;5052365;28;20492;-69
2022/11/11 11:34:49;;;;;;;20.70;15.37;;;13.40;99.90;;;;;;5037191;28;20110;-69
2022/11/11 11:37:16;;;;;;;16.13;14.47;;;13.40;99.90;;;;;;5021435;28;20291;-70
2022/11/11 11:39:42;;;;;;;18.75;14.93;;;13.40;99.90;;;;;;5058075;28;20299;-70
2022/11/11 11:42:30;;;;;;;18.17;14.20;;;13.40;99.90;;;;;;5057951;28;20451;-69
2022/11/11 11:45:28;;;;;;;22.02;14.45;;;13.40;99.90;;;;;;5058161;28;20127;-69
2022/11/11 11:48:11;;;;;;;15.05;13.02;;;13.40;99.90;;;;;;5048454;28;20056;-69
2022/11/11 11:50:55;;;;;;;16.90;13.15;;;13.40;99.90;;;;;;5057962;28;20088;-71
2022/11/11 11:53:40;;;;;;;18.33;13.30;;;13.40;99.90;;;;;;5040104;28;20106;-70
2022/11/11 11:56:24;;;;;;;17.00;13.65;;;13.30;99.90;;;;;;5057880;28;20041;-70
2022/11/11 11:59:08;;;;;;;14.25;12.68;;;13.10;99.90;;;;;;5057991;28;20079;-71
2022/11/11 12:01:57;;;;;;;14.80;12.80;;;13.20;99.90;;;;;;5054795;28;20041;-71
2022/11/11 12:04:50;;;;;;;17.27;12.32;;;13.20;99.90;;;;;;5020842;28;20053;-70
2022/11/11 12:07:48;;;;;;;18.08;13.65;;;13.10;99.90;;;;;;5018588;28;20042;-69
2022/11/11 12:10:26;;;;;;;17.77;13.98;;;13.20;99.90;;;;;;5017730;28;20121;-70
2022/11/11 12:13:16;;;;;;;15.35;13.75;;;13.10;99.90;;;;;;5017916;28;20030;-70
2022/11/11 12:15:57;;;;;;;13.98;12.45;;;13.10;99.90;;;;;;5017833;28;20052;-70
2022/11/11 12:18:40;;;;;;;15.60;13.63;;;13.20;99.90;;;;;;5017249;28;20113;-71
2022/11/11 12:21:21;;;;;;;16.23;14.05;;;13.10;99.90;;;;;;5017585;28;20129;-71
2022/11/11 12:23:49;;;;;;;14.93;13.27;;;13.10;99.90;;;;;;5017269;28;20105;-71
2022/11/11 12:26:39;;;;;;;17.23;13.60;;;13.10;99.90;;;;;;5017534;28;20038;-71
2022/11/11 12:29:47;;;;;;;14.88;13.07;;;13.00;99.90;;;;;;5017035;28;20045;-71
2022/11/11 12:32:24;;;;;;;16.90;13.50;;;13.00;99.90;;;;;;4983846;28;20470;-70
2022/11/11 12:34:58;;;;;;;15.90;13.45;;;12.90;99.90;;;;;;5025889;28;20440;-69
2022/11/11 12:37:30;;;;;;;16.67;14.70;;;12.90;99.90;;;;;;5037211;28;20041;-69
2022/11/11 12:39:58;;;;;;;17.15;14.40;;;12.80;99.90;;;;;;5019840;28;20052;-68
2022/11/11 12:42:40;;;;;;;19.08;14.65;;;12.80;99.90;;;;;;5037326;28;20041;-70
2022/11/11 12:45:22;;;;;;;16.42;14.05;;;12.80;99.90;;;;;;5036864;28;20037;-69
2022/11/11 12:48:18;;;;;;;16.10;13.88;;;12.80;99.90;;;;;;5019046;28;20033;-70
2022/11/11 12:51:07;;;;;;;18.08;14.38;;;12.80;99.90;;;;;;5019518;28;20108;-69
2022/11/11 12:53:55;;;;;;;17.95;13.38;;;12.80;99.90;;;;;;5036754;28;20044;-70
2022/11/11 12:56:44;;;;;;;19.60;13.80;;;12.70;99.90;;;;;;5037020;28;20053;-70
2022/11/11 12:59:37;;;;;;;16.77;13.77;;;12.80;99.90;;;;;;5017968;28;20054;-71
2022/11/11 13:02:16;;;;;;;15.30;13.30;;;12.80;99.90;;;;;;5032111;28;20046;-69
2022/11/11 13:05:06;;;;;;;17.80;13.32;;;12.90;99.90;;;;;;5031731;28;20137;-70
2022/11/11 13:07:58;;;;;;;17.05;13.52;;;12.90;99.90;;;;;;5016618;28;20410;-70
2022/11/11 13:10:43;;;;;;;19.75;14.00;;;12.90;99.90;;;;;;5016605;28;20442;-71
2022/11/11 13:13:23;;;;;;;16.33;13.18;;;12.90;99.90;;;;;;5022786;28;20048;-71
2022/11/11 13:15:49;;;;;;;16.50;13.50;;;12.90;99.90;;;;;;5036999;28;20380;-70
2022/11/11 13:18:22;;;;;;;15.40;13.23;;;12.80;99.90;;;;;;5027228;28;20040;-69
2022/11/11 13:21:01;;;;;;;16.02;14.05;;;12.80;99.90;;;;;;5016325;28;20038;-70
2022/11/11 13:23:27;;;;;;;17.52;14.48;;;12.80;99.90;;;;;;5016081;28;20049;-70
2022/11/11 13:25:58;;;;;;;15.82;14.02;;;12.70;99.90;;;;;;5016296;28;20056;-70
2022/11/11 13:28:38;;;;;;;17.30;13.18;;;12.70;99.90;;;;;;5016473;28;20038;-70
2022/11/11 13:31:13;;;;;;;17.58;14.30;;;12.70;99.90;;;;;;5016373;28;20346;-69
2022/11/11 13:33:48;;;;;;;16.80;14.75;;;12.70;99.90;;;;;;5022130;28;20452;-68
2022/11/11 13:36:17;;;;;;;20.48;14.70;;;12.60;99.90;;;;;;5035854;28;20327;-71
2022/11/11 13:38:50;;;;;;;17.67;14.13;;;12.70;99.90;;;;;;5018802;28;20045;-70
2022/11/11 13:41:26;;;;;;;21.33;15.63;;;12.60;99.90;;;;;;5035890;28;20053;-71
2022/11/11 13:43:53;;;;;;;16.02;14.25;;;12.60;99.90;;;;;;5035883;28;20092;-69
2022/11/11 13:46:40;;;;;;;16.73;14.77;;;12.60;99.90;;;;;;5032526;28;20041;-69
2022/11/11 13:49:20;;;;;;;19.15;15.15;;;12.60;99.90;;;;;;5015832;28;20137;-70
2022/11/11 13:51:55;;;;;;;20.23;15.77;;;12.60;99.90;;;;;;4998468;28;20202;-70
2022/11/11 13:54:41;;;;;;;18.65;14.88;;;12.60;99.90;;;;;;5014931;28;20057;-69
2022/11/11 13:57:22;;;;;;;21.73;15.30;;;12.60;99.90;;;;;;5015222;28;20096;-70
2022/11/11 14:00:00;;;;;;;18.20;16.05;;;12.50;99.90;;;;;;5015332;28;20069;-70